Time;durP1;ratioP1;P1;durP2;ratioP2;P2;SDS_P1;SDS_P2;PMS_P1;PMS_P2;Temp;Humidity;BMP_temperature;BMP_pressure;BME280_temperature;BME280_humidity;BME280_pressure;Samples;Min_cycle;Max_cycle;Signal;HPM_P1;HPM_P2
2023/09/01 00:00:42;;;;;;;5.75;3.72;;;;;;;23.27;48.11;99381.06;5113527;28;20030;-74
2023/09/01 00:03:08;;;;;;;8.38;2.72;;;;;;;23.45;47.83;99391.50;5131700;28;20039;-75
2023/09/01 00:05:34;;;;;;;4.93;2.53;;;;;;;23.44;47.71;99378.47;5131892;28;20054;-74
2023/09/01 00:08:00;;;;;;;7.72;3.20;;;;;;;23.60;47.54;99387.22;5113320;28;20046;-74
2023/09/01 00:10:25;;;;;;;8.05;3.70;;;;;;;23.58;47.33;99383.16;5131806;28;20503;-74
2023/09/01 00:12:51;;;;;;;5.93;3.35;;;;;;;23.63;47.06;99383.50;5131636;28;20483;-75
2023/09/01 00:15:17;;;;;;;6.55;2.88;;;;;;;23.62;47.15;99386.81;5113306;28;20031;-74
2023/09/01 00:17:43;;;;;;;4.15;2.72;;;;;;;23.59;46.80;99393.34;5113193;28;20552;-74
2023/09/01 00:20:09;;;;;;;4.30;3.13;;;;;;;23.63;46.89;99389.22;5113223;28;20019;-74
2023/09/01 00:22:34;;;;;;;5.82;3.22;;;;;;;23.41;47.61;99389.50;5131587;28;20015;-74
2023/09/01 00:25:00;;;;;;;9.98;3.08;;;;;;;23.26;47.91;99379.44;5113212;28;20471;-74
2023/09/01 00:27:26;;;;;;;6.47;3.40;;;;;;;23.26;47.81;99379.44;5131657;28;20044;-74
2023/09/01 00:29:51;;;;;;;8.05;3.47;;;;;;;23.12;48.59;99377.56;5113180;28;20122;-75
2023/09/01 00:32:16;;;;;;;8.23;3.10;;;;;;;22.94;48.81;99378.53;5113074;28;20050;-74
2023/09/01 00:34:42;;;;;;;9.88;3.63;;;;;;;22.58;50.05;99378.88;5131608;28;20080;-74
2023/09/01 00:37:07;;;;;;;21.20;4.22;;;;;;;22.66;49.94;99379.59;5113108;28;20023;-74
2023/09/01 00:39:33;;;;;;;13.45;3.80;;;;;;;22.67;49.91;99384.06;5113069;28;20027;-74
2023/09/01 00:41:59;;;;;;;23.42;4.53;;;;;;;22.48;50.30;99385.44;5117340;28;20016;-74
2023/09/01 00:44:24;;;;;;;12.13;3.90;;;;;;;22.59;50.46;99386.19;5093233;28;20016;-74
2023/09/01 00:46:50;;;;;;;9.75;3.15;;;;;;;22.65;50.31;99392.25;5096487;28;20500;-74
2023/09/01 00:49:18;;;;;;;12.35;3.92;;;;;;;22.36;51.06;99395.28;5115208;28;20492;-74
2023/09/01 00:51:47;;;;;;;7.78;3.50;;;;;;;21.85;52.98;99395.59;5114642;28;20012;-74
2023/09/01 00:54:14;;;;;;;19.87;4.90;;;;;;;21.84;53.40;99405.34;5114540;28;20103;-74
2023/09/01 00:56:40;;;;;;;7.13;3.90;;;;;;;21.90;53.02;99409.41;5114539;28;20412;-74
2023/09/01 00:59:06;;;;;;;6.80;3.47;;;;;;;21.81;53.30;99404.16;5114348;28;20044;-74
2023/09/01 01:01:32;;;;;;;6.28;3.78;;;;;;;21.79;53.32;99420.03;5114355;28;20027;-74
2023/09/01 01:03:59;;;;;;;5.97;3.65;;;;;;;21.60;53.86;99425.75;5096045;28;20076;-74
2023/09/01 01:06:45;;;;;;;8.73;3.72;;;;;;;21.39;54.72;99420.94;5114394;28;20092;-74
2023/09/01 01:09:29;;;;;;;6.80;3.28;;;;;;;21.03;55.64;99418.97;5114270;28;20107;-74
2023/09/01 01:12:29;;;;;;;9.85;3.38;;;;;;;21.01;56.00;99417.78;5114216;28;20020;-74
2023/09/01 01:14:56;;;;;;;4.63;3.63;;;;;;;21.26;55.24;99416.91;5114131;28;20027;-74
2023/09/01 01:17:23;;;;;;;9.60;4.68;;;;;;;21.29;54.93;99407.56;5095901;28;20433;-74
2023/09/01 01:19:50;;;;;;;8.05;4.53;;;;;;;21.32;54.85;99420.94;5114041;28;20023;-74
2023/09/01 01:22:23;;;;;;;7.90;3.50;;;;;;;21.15;55.26;99420.59;5095763;28;20031;-74
2023/09/01 01:24:49;;;;;;;9.13;3.78;;;;;;;21.07;55.52;99424.66;5113939;28;20614;-74
2023/09/01 01:27:18;;;;;;;8.82;3.70;;;;;;;21.08;55.44;99420.59;5106918;27;20030;-74
2023/09/01 01:29:43;;;;;;;6.28;3.08;;;;;;;21.23;55.00;99417.72;5134429;27;20505;-73
2023/09/01 01:32:09;;;;;;;7.25;3.15;;;;;;;21.45;54.30;99424.19;5134370;27;20019;-73
2023/09/01 01:34:42;;;;;;;8.05;3.92;;;;;;;21.45;53.84;99418.50;5115920;27;20015;-73
2023/09/01 01:37:28;;;;;;;4.82;3.00;;;;;;;21.68;53.41;99409.47;5115894;27;20034;-73
2023/09/01 01:39:55;;;;;;;14.10;3.50;;;;;;;21.75;52.92;99402.94;5134207;27;20034;-73
2023/09/01 01:42:21;;;;;;;8.15;3.53;;;;;;;21.63;53.41;99411.91;5134179;27;20090;-73
2023/09/01 01:44:49;;;;;;;9.63;3.95;;;;;;;21.56;53.18;99412.75;5134118;27;20019;-73
2023/09/01 01:47:15;;;;;;;10.07;3.60;;;;;;;21.75;52.77;99414.34;5134154;27;20026;-73
2023/09/01 01:49:41;;;;;;;3.78;3.05;;;;;;;21.57;53.40;99409.50;5133888;27;20012;-73
2023/09/01 01:52:07;;;;;;;6.97;3.20;;;;;;;21.26;54.75;99412.03;5133963;27;20044;-73
2023/09/01 01:54:33;;;;;;;6.47;3.45;;;;;;;21.27;54.52;99407.97;5133849;27;20034;-73
2023/09/01 01:56:59;;;;;;;6.28;3.50;;;;;;;21.06;55.62;99403.13;5133893;27;20027;-73
2023/09/01 01:59:24;;;;;;;6.65;4.13;;;;;;;20.92;56.31;99408.84;5115309;27;20423;-73
2023/09/01 02:01:50;;;;;;;7.18;3.67;;;;;;;20.99;56.26;99418.16;5133823;27;20033;-74
2023/09/01 02:04:15;;;;;;;9.18;4.03;;;;;;;20.54;57.83;99415.72;5115315;27;20023;-73
2023/09/01 02:06:41;;;;;;;5.32;3.53;;;;;;;20.61;57.58;99417.75;5115348;27;20027;-73
2023/09/01 02:09:09;;;;;;;10.35;4.10;;;;;;;20.66;57.39;99411.66;5115516;27;20015;-73
2023/09/01 02:11:36;;;;;;;5.53;3.38;;;;;;;20.54;57.89;99414.91;5133657;27;20545;-73
2023/09/01 02:14:02;;;;;;;10.93;4.63;;;;;;;20.69;57.50;99418.56;5114991;27;20019;-73
2023/09/01 02:16:27;;;;;;;8.13;3.35;;;;;;;20.56;57.80;99410.44;5133665;27;20089;-73
2023/09/01 02:18:53;;;;;;;21.13;3.97;;;;;;;20.44;58.03;99410.84;5115077;27;20032;-73
2023/09/01 02:21:20;;;;;;;7.03;3.67;;;;;;;20.36;58.15;99412.88;5133428;27;20026;-73
2023/09/01 02:23:46;;;;;;;10.50;3.78;;;;;;;20.44;57.67;99411.63;5133454;27;20015;-73
2023/09/01 02:26:22;;;;;;;12.68;7.75;;;;;;;20.81;56.62;99408.81;5133268;27;20510;-73
2023/09/01 02:28:49;;;;;;;14.85;8.50;;;;;;;20.80;56.50;99412.88;5115184;27;20505;-73
2023/09/01 02:31:14;;;;;;;10.35;4.72;;;;;;;20.72;56.61;99423.44;5114699;27;20058;-73
2023/09/01 02:33:41;;;;;;;10.85;3.83;;;;;;;20.66;56.92;99423.03;5133123;27;20019;-73
2023/09/01 02:36:26;;;;;;;6.57;4.03;;;;;;;20.92;56.31;99420.22;5114702;27;20027;-73
2023/09/01 02:38:53;;;;;;;10.75;5.97;;;;;;;21.19;55.34;99414.91;5133084;27;20084;-73
2023/09/01 02:41:19;;;;;;;10.85;6.50;;;;;;;21.23;55.27;99415.69;5114511;27;20053;-72
2023/09/01 02:43:45;;;;;;;15.27;8.10;;;;;;;21.34;54.91;99418.50;5133005;27;20023;-73
2023/09/01 02:46:11;;;;;;;14.32;8.40;;;;;;;21.29;54.76;99404.72;5132822;27;20025;-73
2023/09/01 02:48:36;;;;;;;34.55;9.05;;;;;;;21.18;55.44;99411.22;5132872;27;20091;-73
2023/09/01 02:51:04;;;;;;;11.15;4.65;;;;;;;21.00;55.71;99399.91;5132603;27;20019;-73
2023/09/01 02:53:30;;;;;;;10.75;4.10;;;;;;;20.99;55.89;99408.81;5114281;27;20033;-73
2023/09/01 02:55:56;;;;;;;11.52;8.43;;;;;;;21.13;55.35;99410.84;5114134;27;20027;-73
2023/09/01 02:58:21;;;;;;;17.65;7.03;;;;;;;21.05;55.34;99407.19;5114252;27;20130;-73
2023/09/01 03:00:50;;;;;;;12.77;4.28;;;;;;;20.67;56.73;99410.44;5132675;27;20375;-73
2023/09/01 03:03:15;;;;;;;12.70;7.72;;;;;;;20.96;55.97;99407.63;5132617;27;20015;-73
2023/09/01 03:05:42;;;;;;;19.02;9.10;;;;;;;20.90;56.07;99409.25;5114508;27;20395;-73
2023/09/01 03:08:07;;;;;;;14.90;8.05;;;;;;;20.86;56.40;99417.75;5113949;27;20027;-73
2023/09/01 03:10:33;;;;;;;12.15;6.38;;;;;;;20.67;56.74;99401.91;5114646;27;20027;-73
2023/09/01 03:12:58;;;;;;;13.85;6.88;;;;;;;20.56;56.97;99404.75;5114116;27;20096;-73
2023/09/01 03:15:24;;;;;;;13.15;6.75;;;;;;;20.57;56.83;99405.56;5132319;27;20094;-73
2023/09/01 03:17:49;;;;;;;10.38;6.20;;;;;;;20.52;56.86;99412.47;5113889;27;20027;-73
2023/09/01 03:20:16;;;;;;;13.60;3.72;;;;;;;20.12;58.07;99414.44;5132336;27;20388;-73
2023/09/01 03:22:41;;;;;;;8.70;4.82;;;;;;;20.04;58.14;99402.25;5113858;27;20020;-73
2023/09/01 03:25:09;;;;;;;13.95;4.65;;;;;;;20.03;58.74;99412.81;5132231;27;20019;-73
2023/09/01 03:27:38;;;;;;;13.07;3.58;;;;;;;19.91;58.86;99418.81;5132199;27;20019;-73
2023/09/01 03:30:04;;;;;;;8.45;3.70;;;;;;;19.91;59.10;99418.81;5132146;27;20422;-73
2023/09/01 03:32:30;;;;;;;18.92;5.00;;;;;;;20.11;58.47;99424.97;5113553;28;20019;-73
2023/09/01 03:34:55;;;;;;;13.25;7.38;;;;;;;20.15;57.87;99430.66;5132058;27;20567;-73
2023/09/01 03:37:22;;;;;;;14.45;8.20;;;;;;;20.19;57.55;99426.59;5113701;27;20054;-73
2023/09/01 03:39:48;;;;;;;12.98;7.10;;;;;;;20.42;57.47;99422.59;5113641;28;20462;-73
2023/09/01 03:42:13;;;;;;;22.20;10.57;;;;;;;20.56;56.81;99423.81;5132187;27;20102;-73
2023/09/01 03:44:39;;;;;;;12.98;6.15;;;;;;;20.69;56.28;99418.56;5113607;27;20030;-73
2023/09/01 03:47:04;;;;;;;39.92;8.77;;;;;;;20.67;56.16;99429.53;5131990;27;20019;-73
2023/09/01 03:49:30;;;;;;;21.20;10.95;;;;;;;20.53;56.21;99431.16;5131961;28;20080;-73
2023/09/01 03:51:55;;;;;;;30.67;12.27;;;;;;;20.71;55.46;99431.16;5131889;28;20448;-73
2023/09/01 03:54:21;;;;;;;28.70;9.23;;;;;;;20.67;55.62;99433.16;5113493;28;20122;-73
2023/09/01 03:56:47;;;;;;;15.07;6.25;;;;;;;20.56;55.62;99432.34;5113346;28;20015;-73
2023/09/01 03:59:12;;;;;;;15.93;6.10;;;;;;;20.55;55.90;99434.38;5131896;28;20050;-73
2023/09/01 04:01:37;;;;;;;16.00;9.68;;;;;;;20.73;55.50;99439.25;5131848;28;20567;-73
2023/09/01 04:04:05;;;;;;;21.45;12.68;;;;;;;20.71;55.23;99439.69;5113936;28;20060;-73
2023/09/01 04:06:30;;;;;;;30.67;15.48;;;;;;;20.72;55.17;99451.84;5131759;28;20494;-73
2023/09/01 04:08:56;;;;;;;37.75;18.92;;;;;;;20.69;54.99;99453.47;5113772;28;20034;-73
2023/09/01 04:11:21;;;;;;;33.35;21.13;;;;;;;20.60;55.20;99459.53;5131736;28;20030;-73
2023/09/01 04:13:46;;;;;;;35.75;18.13;;;;;;;20.47;55.53;99449.78;5113337;28;20090;-73
2023/09/01 04:16:12;;;;;;;22.40;13.82;;;;;;;20.31;56.50;99462.34;5131737;28;20023;-73
2023/09/01 04:18:37;;;;;;;26.17;10.43;;;;;;;20.13;57.27;99458.63;5131762;27;20479;-72
2023/09/01 04:21:03;;;;;;;12.95;4.78;;;;;;;19.83;58.42;99459.72;5135336;27;20514;-73
2023/09/01 04:23:28;;;;;;;11.95;4.32;;;;;;;19.81;58.77;99456.47;5135835;27;20024;-73
2023/09/01 04:25:54;;;;;;;10.73;4.10;;;;;;;19.47;59.83;99455.50;5117262;27;20034;-73
2023/09/01 04:28:19;;;;;;;39.55;6.97;;;;;;;19.47;60.13;99458.31;5135670;27;20046;-73
2023/09/01 04:30:46;;;;;;;18.75;4.50;;;;;;;19.42;60.21;99458.69;5135733;27;20027;-73
2023/09/01 04:33:12;;;;;;;13.15;5.05;;;;;;;19.56;60.02;99457.16;5135501;27;20069;-73
2023/09/01 04:35:38;;;;;;;13.82;4.75;;;;;;;19.34;60.43;99459.88;5135432;27;20027;-73
2023/09/01 04:38:03;;;;;;;27.40;5.82;;;;;;;19.30;60.78;99453.34;5117104;27;20022;-73
2023/09/01 04:40:29;;;;;;;15.25;5.35;;;;;;;19.21;61.44;99457.38;5135478;27;20371;-73
2023/09/01 04:42:55;;;;;;;15.43;5.03;;;;;;;19.33;61.48;99455.41;5135341;27;20015;-73
2023/09/01 04:45:20;;;;;;;17.35;5.78;;;;;;;19.52;60.75;99448.63;5116968;27;20503;-73
2023/09/01 04:47:46;;;;;;;22.80;5.40;;;;;;;19.85;59.92;99460.97;5135312;27;20499;-73
2023/09/01 04:50:11;;;;;;;18.55;5.75;;;;;;;20.13;58.87;99461.47;5116741;27;20026;-73
2023/09/01 04:52:37;;;;;;;41.40;6.68;;;;;;;20.34;58.32;99467.22;5135107;27;20027;-73
2023/09/01 04:55:04;;;;;;;28.77;5.68;;;;;;;20.48;57.54;99474.97;5135125;27;20019;-73
2023/09/01 04:57:31;;;;;;;34.80;4.97;;;;;;;20.58;57.23;99461.19;5135011;27;20019;-73
2023/09/01 04:59:56;;;;;;;48.63;5.32;;;;;;;20.57;56.92;99474.56;5116475;27;20050;-73
2023/09/01 05:02:22;;;;;;;27.08;5.55;;;;;;;20.89;55.98;99461.63;5134913;27;20011;-73
2023/09/01 05:04:48;;;;;;;14.10;4.70;;;;;;;21.01;55.70;99458.38;5135005;27;20023;-73
2023/09/01 05:07:13;;;;;;;11.98;4.57;;;;;;;21.13;55.70;99459.19;5134949;27;20019;-73
2023/09/01 05:09:39;;;;;;;16.60;4.75;;;;;;;21.12;55.57;99452.69;5116950;27;20118;-73
2023/09/01 05:12:04;;;;;;;19.60;4.35;;;;;;;21.01;55.54;99463.25;5116314;27;20062;-73
2023/09/01 05:14:30;;;;;;;14.05;4.70;;;;;;;21.04;55.49;99463.25;5134764;27;20043;-73
2023/09/01 05:16:56;;;;;;;32.53;5.38;;;;;;;20.96;56.04;99460.81;5134676;27;20034;-73
2023/09/01 05:19:22;;;;;;;22.77;4.53;;;;;;;20.82;56.18;99459.59;5134761;27;20045;-73
2023/09/01 05:21:48;;;;;;;11.45;4.30;;;;;;;21.14;55.72;99466.50;5134616;27;20015;-73
2023/09/01 05:24:14;;;;;;;12.63;6.75;;;;;;;21.27;54.91;99458.34;5134665;27;20019;-73
2023/09/01 05:26:39;;;;;;;13.70;5.57;;;;;;;21.46;54.54;99462.78;5134515;27;20031;-73
2023/09/01 05:29:04;;;;;;;27.95;8.55;;;;;;;21.37;54.37;99460.38;5135178;27;20023;-73
2023/09/01 05:31:30;;;;;;;16.15;8.30;;;;;;;21.43;53.81;99469.31;5133804;27;20015;-73
2023/09/01 05:33:55;;;;;;;10.90;7.55;;;;;;;21.67;53.35;99467.63;5134448;27;20031;-73
2023/09/01 05:36:21;;;;;;;17.15;9.75;;;;;;;21.81;52.94;99472.47;5134378;27;20022;-73
2023/09/01 05:38:46;;;;;;;51.38;9.73;;;;;;;21.84;52.90;99471.63;5134249;27;20030;-73
2023/09/01 05:41:12;;;;;;;15.20;6.18;;;;;;;21.90;52.36;99472.03;5115867;27;20023;-72
2023/09/01 05:43:38;;;;;;;7.22;3.53;;;;;;;21.88;52.18;99465.94;5134092;27;20066;-73
2023/09/01 05:46:04;;;;;;;10.13;3.95;;;;;;;22.10;52.00;99474.41;5134143;27;20102;-73
2023/09/01 05:48:29;;;;;;;14.75;4.03;;;;;;;22.11;51.99;99473.16;5134068;27;20023;-73
2023/09/01 05:50:55;;;;;;;23.27;5.70;;;;;;;22.42;51.38;99476.22;5134085;27;20407;-73
2023/09/01 05:53:21;;;;;;;14.30;5.30;;;;;;;22.57;50.93;99474.97;5133910;27;20509;-73
2023/09/01 05:55:47;;;;;;;9.77;5.13;;;;;;;22.87;50.24;99475.56;5115561;27;20114;-73
2023/09/01 05:58:13;;;;;;;13.75;3.78;;;;;;;22.47;50.77;99469.28;5133726;27;20591;-73
2023/09/01 06:00:38;;;;;;;11.82;4.28;;;;;;;22.20;52.28;99476.34;5115569;27;20520;-73
2023/09/01 06:03:04;;;;;;;10.23;5.85;;;;;;;22.59;51.26;99483.06;5133787;27;20098;-73
2023/09/01 06:05:30;;;;;;;9.07;4.20;;;;;;;22.74;50.42;99482.97;5133850;27;20031;-73
2023/09/01 06:07:56;;;;;;;8.65;4.20;;;;;;;22.99;49.93;99471.38;5133697;27;20030;-73
2023/09/01 06:10:22;;;;;;;13.93;4.80;;;;;;;22.92;49.38;99477.97;5133800;27;20452;-73
2023/09/01 06:12:47;;;;;;;23.42;5.30;;;;;;;22.90;50.19;99483.28;5133801;27;20507;-73
2023/09/01 06:15:13;;;;;;;9.70;4.72;;;;;;;22.94;49.92;99486.09;5133850;27;20023;-73
2023/09/01 06:17:39;;;;;;;13.57;4.50;;;;;;;22.97;49.80;99486.03;5115171;27;20030;-73
2023/09/01 06:20:06;;;;;;;16.25;5.78;;;;;;;23.33;49.06;99490.66;5133572;27;20046;-73
2023/09/01 06:22:34;;;;;;;14.00;4.20;;;;;;;23.41;48.69;99492.22;5133414;27;20059;-73
2023/09/01 06:25:00;;;;;;;8.07;3.78;;;;;;;23.62;47.85;99498.13;5133384;27;20086;-73
2023/09/01 06:27:25;;;;;;;13.80;4.78;;;;;;;23.46;48.74;99493.78;5133222;27;20402;-73
2023/09/01 06:29:51;;;;;;;15.48;5.60;;;;;;;23.42;48.34;99501.59;5133323;27;20019;-73
2023/09/01 06:32:16;;;;;;;12.40;6.18;;;;;;;23.64;47.86;99499.31;5133051;27;20540;-73
2023/09/01 06:34:42;;;;;;;17.90;4.63;;;;;;;23.65;48.15;99495.25;5114907;27;20254;-73
2023/09/01 06:37:07;;;;;;;16.35;4.18;;;;;;;23.70;47.71;99496.81;5133169;27;20026;-73
2023/09/01 06:39:33;;;;;;;9.25;4.03;;;;;;;23.77;48.00;99495.91;5133577;27;20019;-73
2023/09/01 06:41:58;;;;;;;12.05;5.43;;;;;;;23.94;46.86;99491.22;5132347;27;20372;-73
2023/09/01 06:44:24;;;;;;;11.52;4.32;;;;;;;24.07;46.25;99498.06;5114530;27;20015;-73
2023/09/01 06:46:50;;;;;;;6.28;4.30;;;;;;;24.07;46.71;99503.75;5114550;27;20027;-72
2023/09/01 06:49:15;;;;;;;9.63;4.13;;;;;;;24.22;46.35;99504.38;5114414;27;20015;-73
2023/09/01 06:51:41;;;;;;;9.70;3.72;;;;;;;24.16;45.80;99496.69;5132878;27;20015;-73
2023/09/01 06:54:07;;;;;;;9.80;4.00;;;;;;;24.24;46.05;99501.09;5132821;27;20058;-73
2023/09/01 06:56:32;;;;;;;7.53;3.90;;;;;;;24.53;45.32;99507.22;5132777;27;20155;-73
2023/09/01 06:58:58;;;;;;;13.65;5.03;;;;;;;24.71;44.86;99506.13;5114311;27;20111;-73
2023/09/01 07:01:23;;;;;;;14.98;4.50;;;;;;;24.71;44.32;99509.00;5114354;27;20128;-73
2023/09/01 07:03:50;;;;;;;19.55;5.05;;;;;;;24.69;43.98;99508.63;5132587;27;20023;-73
2023/09/01 07:06:16;;;;;;;8.48;4.07;;;;;;;24.92;43.93;99509.94;5133410;27;20035;-73
2023/09/01 07:08:42;;;;;;;12.27;4.97;;;;;;;24.89;43.10;99499.38;5132554;27;20043;-73
2023/09/01 07:11:10;;;;;;;11.05;3.80;;;;;;;24.99;43.28;99515.56;5132513;27;20046;-73
2023/09/01 07:13:35;;;;;;;7.28;3.22;;;;;;;25.17;42.96;99515.25;5113962;27;20114;-73
2023/09/01 07:16:01;;;;;;;17.50;4.75;;;;;;;25.32;42.82;99515.81;5132472;27;20099;-74
2023/09/01 07:18:26;;;;;;;6.80;3.58;;;;;;;25.36;42.35;99515.75;5132371;27;20027;-73
2023/09/01 07:20:57;;;;;;;9.40;4.40;;;;;;;25.20;41.96;99519.28;5132433;27;20030;-73
2023/09/01 07:23:23;;;;;;;10.13;4.35;;;;;;;25.31;42.17;99519.91;5113761;27;20069;-73
2023/09/01 07:25:48;;;;;;;7.95;4.47;;;;;;;25.60;41.42;99513.72;5132300;27;20503;-73
2023/09/01 07:28:14;;;;;;;6.00;3.47;;;;;;;25.58;40.79;99523.97;5132095;27;20066;-73
2023/09/01 07:30:39;;;;;;;9.85;4.22;;;;;;;25.62;40.96;99519.81;5132359;27;20079;-73
2023/09/01 07:33:05;;;;;;;7.82;3.90;;;;;;;25.69;41.05;99518.84;5132031;27;20030;-73
2023/09/01 07:35:30;;;;;;;11.90;4.28;;;;;;;25.79;40.54;99514.16;5113572;27;20019;-73
2023/09/01 07:37:57;;;;;;;6.03;4.22;;;;;;;26.00;39.98;99515.00;5132175;27;20034;-73
2023/09/01 07:40:22;;;;;;;15.35;4.50;;;;;;;26.03;40.21;99519.84;5132115;27;20072;-73
2023/09/01 07:42:48;;;;;;;5.50;3.42;;;;;;;26.08;39.55;99520.13;5113701;27;20106;-73
2023/09/01 07:45:14;;;;;;;11.52;4.13;;;;;;;26.24;39.69;99520.66;5113495;28;20023;-73
2023/09/01 07:47:39;;;;;;;6.82;3.22;;;;;;;26.31;39.00;99518.44;5132385;27;20022;-73
2023/09/01 07:50:06;;;;;;;9.32;5.50;;;;;;;26.60;38.42;99509.19;5113379;28;20023;-73
2023/09/01 07:52:32;;;;;;;6.47;4.15;;;;;;;26.73;38.82;99508.53;5131999;28;20027;-73
2023/09/01 07:54:57;;;;;;;6.88;4.78;;;;;;;26.40;37.92;99511.31;5137760;27;20019;-73
2023/09/01 07:57:23;;;;;;;8.75;4.85;;;;;;;26.62;37.84;99518.19;5138765;27;20552;-73
2023/09/01 07:59:48;;;;;;;11.40;4.35;;;;;;;26.74;37.70;99513.00;5138589;27;20039;-73
2023/09/01 08:02:14;;;;;;;39.10;4.72;;;;;;;26.71;37.80;99513.88;5120363;27;20023;-73
2023/09/01 08:04:39;;;;;;;7.00;4.47;;;;;;;26.71;37.43;99508.16;5138702;27;20015;-73
2023/09/01 08:07:05;;;;;;;4.43;3.75;;;;;;;26.48;37.89;99502.09;5138815;27;20098;-73
2023/09/01 08:09:30;;;;;;;6.32;3.55;;;;;;;27.01;37.59;99503.38;5138677;27;20019;-73
2023/09/01 08:11:56;;;;;;;8.07;3.70;;;;;;;27.24;37.51;99502.38;5138501;27;20029;-74
2023/09/01 08:14:22;;;;;;;7.75;3.53;;;;;;;27.26;36.87;99501.94;5120136;27;20104;-73
2023/09/01 08:16:48;;;;;;;5.75;2.75;;;;;;;27.18;36.56;99493.50;5120108;27;20015;-73
2023/09/01 08:19:14;;;;;;;18.90;4.05;;;;;;;27.27;36.54;99500.66;5138624;27;20023;-73
2023/09/01 08:21:39;;;;;;;14.52;4.05;;;;;;;27.59;35.59;99496.97;5120155;27;20019;-73
2023/09/01 08:24:05;;;;;;;20.20;4.45;;;;;;;27.56;35.51;99497.88;5138409;27;20023;-73
2023/09/01 08:26:32;;;;;;;6.32;3.13;;;;;;;27.64;34.98;99503.44;5138540;27;20026;-73
2023/09/01 08:28:58;;;;;;;3.88;3.20;;;;;;;27.40;34.74;99498.69;5138436;27;20027;-74
2023/09/01 08:31:23;;;;;;;8.80;3.25;;;;;;;27.41;35.67;99497.41;5138624;27;20034;-73
2023/09/01 08:33:49;;;;;;;6.07;3.70;;;;;;;27.20;35.30;99490.19;5138440;27;20038;-74
2023/09/01 08:36:15;;;;;;;12.85;6.50;;;;;;;27.83;34.80;99484.44;5138362;27;20022;-73
2023/09/01 08:38:40;;;;;;;16.45;3.60;;;;;;;27.71;34.95;99478.19;5138379;27;20406;-73
2023/09/01 08:41:06;;;;;;;5.88;3.55;;;;;;;27.49;35.05;99485.75;5138367;27;20161;-73
2023/09/01 08:43:40;;;;;;;8.20;3.30;;;;;;;27.38;35.27;99474.53;5138417;27;20188;-73
2023/09/01 08:46:07;;;;;;;4.32;3.35;;;;;;;27.77;34.42;99483.38;5138237;27;20054;-73
2023/09/01 08:48:33;;;;;;;6.55;3.28;;;;;;;27.67;34.54;99480.34;5138256;27;20025;-74
2023/09/01 08:50:59;;;;;;;7.57;3.53;;;;;;;28.15;34.15;99474.84;5138194;27;20069;-73
2023/09/01 08:53:25;;;;;;;4.35;3.75;;;;;;;28.09;33.44;99476.69;5138202;27;20050;-73
2023/09/01 08:55:51;;;;;;;7.40;3.15;;;;;;;28.33;32.97;99476.41;5138652;27;20026;-73
2023/09/01 08:58:21;;;;;;;6.07;3.47;;;;;;;28.53;32.58;99476.19;5119713;27;20051;-74
2023/09/01 09:00:47;;;;;;;7.00;3.00;;;;;;;28.51;32.13;99460.66;5138243;27;20520;-73
2023/09/01 09:03:19;;;;;;;4.53;2.85;;;;;;;28.36;32.63;99471.81;5138672;27;20019;-74
2023/09/01 09:05:44;;;;;;;6.00;3.40;;;;;;;28.65;32.31;99465.97;5135596;27;20023;-74
2023/09/01 09:08:10;;;;;;;3.78;2.67;;;;;;;28.66;30.98;99467.56;5134877;27;20021;-74
2023/09/01 09:10:46;;;;;;;2.90;2.42;;;;;;;28.81;30.95;99464.22;5135188;27;20465;-74
2023/09/01 09:13:25;;;;;;;3.17;2.10;;;;;;;28.71;30.58;99466.97;5134801;27;20051;-74
2023/09/01 09:16:15;;;;;;;6.45;2.65;;;;;;;28.97;30.87;99463.31;5116374;27;20031;-74
2023/09/01 09:18:47;;;;;;;3.80;2.40;;;;;;;28.67;31.25;99457.66;5134730;27;20075;-73
2023/09/01 09:21:32;;;;;;;5.25;2.30;;;;;;;28.78;30.67;99468.84;5134622;27;20098;-74
2023/09/01 09:23:59;;;;;;;10.20;2.33;;;;;;;29.31;31.98;99453.09;5134566;27;20043;-74
2023/09/01 09:26:29;;;;;;;6.25;2.85;;;;;;;29.24;30.67;99454.16;5134516;27;20034;-74
2023/09/01 09:29:01;;;;;;;6.45;2.65;;;;;;;29.07;30.45;99455.56;5116177;27;20079;-74
2023/09/01 09:31:33;;;;;;;7.07;3.17;;;;;;;29.23;29.98;99457.50;5134450;27;20083;-73
2023/09/01 09:34:12;;;;;;;4.68;3.35;;;;;;;29.56;29.86;99451.44;5115926;27;20027;-74
2023/09/01 09:36:38;;;;;;;8.30;3.22;;;;;;;29.63;30.07;99450.34;5115971;27;20027;-73
2023/09/01 09:39:06;;;;;;;7.38;2.60;;;;;;;29.58;29.42;99451.75;5115879;27;20388;-73
2023/09/01 09:41:47;;;;;;;4.47;3.05;;;;;;;29.07;29.45;99439.13;5115826;27;20022;-74
2023/09/01 09:44:29;;;;;;;4.57;2.58;;;;;;;29.55;28.98;99441.97;5134363;27;20038;-74
2023/09/01 09:46:55;;;;;;;6.22;3.00;;;;;;;29.72;29.32;99443.84;5134187;27;20077;-74
2023/09/01 09:49:22;;;;;;;5.72;2.92;;;;;;;29.68;29.23;99443.97;5115719;27;20522;-74
2023/09/01 09:51:52;;;;;;;4.78;2.60;;;;;;;29.78;28.67;99439.91;5133999;27;20479;-74
2023/09/01 09:54:22;;;;;;;;;;;;;;;29.55;28.05;99444.84;5116211;27;20062;-74
2023/09/01 09:56:51;;;;;;;5.30;2.95;;;;;;;29.87;28.31;99435.47;5115411;27;19908;-74
2023/09/01 09:59:37;;;;;;;3.55;2.45;;;;;;;30.12;27.75;99435.34;5133888;27;20177;-74
2023/09/01 10:02:24;;;;;;;3.45;2.50;;;;;;;30.33;27.34;99426.31;5115407;27;20027;-74
2023/09/01 10:04:52;;;;;;;3.60;2.40;;;;;;;30.27;27.14;99429.00;5134347;27;20015;-74
2023/09/01 10:07:18;;;;;;;2.53;2.10;;;;;;;30.45;27.13;99428.28;5133845;27;20534;-74
2023/09/01 10:09:44;;;;;;;3.50;2.33;;;;;;;30.69;27.30;99424.88;5133787;27;20038;-74
2023/09/01 10:12:11;;;;;;;6.55;2.50;;;;;;;31.06;26.44;99419.19;5133544;27;20046;-74
2023/09/01 10:14:39;;;;;;;2.78;2.35;;;;;;;31.27;26.98;99425.34;5133640;27;20031;-74
2023/09/01 10:17:05;;;;;;;4.85;2.03;;;;;;;31.25;26.32;99422.13;5132422;27;20020;-74
2023/09/01 10:19:31;;;;;;;2.72;2.30;;;;;;;31.68;26.46;99419.41;5115122;27;20059;-74
2023/09/01 10:21:57;;;;;;;4.93;2.00;;;;;;;31.20;25.67;99416.97;5115001;27;20023;-73
2023/09/01 10:24:22;;;;;;;7.82;2.25;;;;;;;31.62;25.59;99418.47;5133355;27;20019;-74
2023/09/01 10:27:07;;;;;;;3.33;2.05;;;;;;;32.00;25.84;99411.34;5133345;27;20041;-74
2023/09/01 10:29:34;;;;;;;4.38;2.83;;;;;;;32.11;25.58;99412.94;5133337;27;20015;-74
2023/09/01 10:32:19;;;;;;;6.53;3.45;;;;;;;31.47;26.18;99413.31;5133300;27;20083;-74
2023/09/01 10:34:52;;;;;;;7.38;2.33;;;;;;;31.50;25.08;99415.25;5133355;27;20027;-74
2023/09/01 10:37:28;;;;;;;2.25;2.00;;;;;;;30.95;25.20;99405.22;5133113;27;20027;-74
2023/09/01 10:39:57;;;;;;;5.05;2.50;;;;;;;30.52;25.76;99404.09;5133252;27;20560;-74
2023/09/01 10:42:48;;;;;;;12.50;2.60;;;;;;;31.34;25.33;99409.78;5114650;27;20026;-74
2023/09/01 10:45:14;;;;;;;2.55;2.35;;;;;;;31.77;25.23;99402.06;5114712;27;20469;-74
2023/09/01 10:47:45;;;;;;;3.72;2.30;;;;;;;31.44;25.29;99399.03;5132863;27;20027;-74
2023/09/01 10:50:12;;;;;;;2.80;2.22;;;;;;;30.95;25.53;99396.56;5132889;27;20023;-74
2023/09/01 10:52:39;;;;;;;3.95;2.38;;;;;;;31.01;26.02;99390.97;5114309;27;20117;-74
2023/09/01 10:55:06;;;;;;;11.40;2.83;;;;;;;31.36;25.34;99392.75;5132870;27;20072;-74
2023/09/01 10:57:42;;;;;;;2.90;2.35;;;;;;;31.27;25.61;99384.13;5114250;27;20380;-74
2023/09/01 11:00:28;;;;;;;5.50;3.33;;;;;;;31.82;25.16;99397.75;5133443;27;20027;-74
2023/09/01 11:02:54;;;;;;;10.40;2.63;;;;;;;32.08;24.49;99400.25;5132633;27;20399;-74
2023/09/01 11:05:38;;;;;;;4.20;2.38;;;;;;;32.05;24.47;99389.66;5132670;27;20019;-74
2023/09/01 11:08:17;;;;;;;3.72;2.40;;;;;;;32.55;24.98;99380.63;5132552;27;20023;-74
2023/09/01 11:10:42;;;;;;;2.97;2.28;;;;;;;32.42;24.74;99380.03;5114186;27;20106;-74
2023/09/01 11:13:18;;;;;;;4.13;2.05;;;;;;;32.84;25.41;99381.25;5114082;27;20583;-74
2023/09/01 11:15:49;;;;;;;3.30;2.33;;;;;;;32.83;25.30;99380.47;5132477;27;20023;-74
2023/09/01 11:18:22;;;;;;;3.22;2.10;;;;;;;32.69;24.62;99378.28;5113925;27;20079;-74
2023/09/01 11:20:55;;;;;;;5.93;2.10;;;;;;;32.35;24.26;99378.31;5114020;27;20047;-74
2023/09/01 11:23:25;;;;;;;3.00;2.17;;;;;;;33.27;23.86;99384.03;5113877;27;20038;-74
2023/09/01 11:26:08;;;;;;;5.88;3.17;;;;;;;32.94;23.39;99373.31;5132281;27;20071;-74
2023/09/01 11:28:37;;;;;;;4.63;2.13;;;;;;;32.76;23.35;99367.16;5113419;27;20047;-74
2023/09/01 11:31:03;;;;;;;3.20;2.40;;;;;;;33.23;22.99;99368.94;5113745;27;20094;-74